Time;durP1;ratioP1;P1;durP2;ratioP2;P2;SDS_P1;SDS_P2;PMS_P1;PMS_P2;Temp;Humidity;BMP_temperature;BMP_pressure;BME280_temperature;BME280_humidity;BME280_pressure;Samples;Min_cycle;Max_cycle;Signal;HPM_P1;HPM_P2
2021/08/23 00:01:16;;;;;;;36.53;22.55;;;;;;;16.40;100.00;99411.67;1674558;85;21594;-68
2021/08/23 00:03:46;;;;;;;37.08;21.87;;;;;;;16.40;100.00;99411.67;1687990;83;21592;-68
2021/08/23 00:06:14;;;;;;;36.88;21.55;;;;;;;16.37;100.00;99409.96;1699063;83;21583;-68
2021/08/23 00:08:42;;;;;;;36.13;21.50;;;;;;;16.35;100.00;99403.34;1668393;85;21045;-67
2021/08/23 00:11:12;;;;;;;36.55;22.22;;;;;;;16.36;100.00;99405.09;1665355;85;20909;-68
2021/08/23 00:13:42;;;;;;;38.60;22.73;;;;;;;16.33;100.00;99406.95;1663728;84;21523;-67
2021/08/23 00:16:11;;;;;;;40.10;21.48;;;;;;;16.31;100.00;99408.33;1706005;83;21539;-68
2021/08/23 00:18:40;;;;;;;36.95;21.37;;;;;;;16.27;100.00;99409.32;1715051;83;21114;-67
2021/08/23 00:21:12;;;;;;;34.25;21.45;;;;;;;16.26;100.00;99402.70;1714772;83;20923;-68
2021/08/23 00:23:50;;;;;;;35.20;19.87;;;;;;;16.24;100.00;99401.87;1695281;83;21548;-67
2021/08/23 00:26:13;;;;;;;38.63;22.90;;;;;;;16.24;100.00;99400.54;1704132;83;20945;-68
2021/08/23 00:28:43;;;;;;;39.55;20.90;;;;;;;16.22;100.00;99397.91;1714437;83;20988;-68
2021/08/23 00:31:12;;;;;;;32.85;21.17;;;;;;;16.20;100.00;99393.55;1708130;83;21130;-68
2021/08/23 00:33:40;;;;;;;33.53;20.08;;;;;;;16.10;100.00;99400.88;1715038;83;20854;-68
2021/08/23 00:36:10;;;;;;;38.48;20.80;;;;;;;16.10;100.00;99400.88;1667335;83;21437;-68
2021/08/23 00:38:38;;;;;;;32.88;20.10;;;;;;;16.06;100.00;99402.70;1685275;83;21737;-68
2021/08/23 00:41:06;;;;;;;35.13;19.67;;;;;;;16.06;100.00;99402.70;1705882;83;20939;-67
2021/08/23 00:43:34;;;;;;;34.18;19.52;;;;;;;16.04;100.00;99401.00;1712808;83;21541;-68
2021/08/23 00:46:07;;;;;;;30.48;20.10;;;;;;;16.06;100.00;99405.83;1704662;83;21061;-68
2021/08/23 00:48:35;;;;;;;35.03;19.57;;;;;;;16.06;100.00;99401.38;1713629;83;20976;-68
2021/08/23 00:51:04;;;;;;;33.38;19.00;;;;;;;16.06;100.00;99401.38;1714730;83;21507;-68
2021/08/23 00:53:32;;;;;;;29.42;19.20;;;;;;;16.05;100.00;99404.95;1714678;83;21080;-68
2021/08/23 00:56:00;;;;;;;34.88;19.70;;;;;;;16.05;100.00;99412.06;1688913;83;22054;-68
2021/08/23 00:58:28;;;;;;;30.45;19.50;;;;;;;16.04;100.00;99412.97;1713062;83;20897;-67
2021/08/23 01:01:07;;;;;;;33.18;19.77;;;;;;;16.04;100.00;99412.97;1714609;83;20904;-68
2021/08/23 01:03:40;;;;;;;36.08;20.77;;;;;;;16.03;100.00;99408.56;1714845;83;20964;-67
2021/08/23 01:06:09;;;;;;;38.17;22.73;;;;;;;16.04;100.00;99404.53;1714920;83;21456;-68
2021/08/23 01:08:41;;;;;;;40.73;23.70;;;;;;;16.07;100.00;99410.23;1716420;83;21089;-68
2021/08/23 01:11:14;;;;;;;35.95;21.82;;;;;;;16.06;100.00;99404.49;1716152;83;21411;-66
2021/08/23 01:13:50;;;;;;;36.50;22.30;;;;;;;16.06;100.00;99404.49;1708404;83;21476;-66
2021/08/23 01:16:20;;;;;;;43.60;22.82;;;;;;;16.01;100.00;99395.30;1717599;83;20996;-66
2021/08/23 01:18:50;;;;;;;46.90;23.32;;;;;;;16.01;100.00;99395.30;1716957;83;20905;-66
2021/08/23 01:21:22;;;;;;;38.63;21.33;;;;;;;15.99;100.00;99401.11;1717770;83;21987;-66
2021/08/23 01:23:50;;;;;;;36.45;19.85;;;;;;;15.98;100.00;99403.35;1717702;83;20928;-65
2021/08/23 01:26:21;;;;;;;36.55;21.60;;;;;;;15.98;100.00;99398.48;1714541;83;20976;-66
2021/08/23 01:29:19;;;;;;;37.58;23.00;;;;;;;15.97;100.00;99396.73;1707242;83;21634;-66
2021/08/23 01:32:18;;;;;;;34.15;19.37;;;;;;;15.99;100.00;99402.44;1715690;83;21479;-68
2021/08/23 01:34:48;;;;;;;30.92;18.60;;;;;;;15.92;100.00;99391.98;1717889;83;21085;-68
2021/08/23 01:37:18;;;;;;;25.95;18.45;;;;;;;15.92;100.00;99391.98;1717525;83;20850;-68
2021/08/23 01:39:46;;;;;;;29.15;16.95;;;;;;;15.89;100.00;99394.72;1717517;83;20960;-68
2021/08/23 01:42:14;;;;;;;23.32;16.42;;;;;;;15.88;100.00;99401.82;1689228;83;21551;-68
2021/08/23 01:44:42;;;;;;;25.62;17.00;;;;;;;15.88;100.00;99401.82;1717248;83;21074;-68
2021/08/23 01:47:11;;;;;;;31.17;17.50;;;;;;;15.88;100.00;99400.95;1717571;83;21171;-68
2021/08/23 01:49:39;;;;;;;23.67;15.65;;;;;;;15.85;100.00;99388.59;1717570;83;20944;-68
2021/08/23 01:52:12;;;;;;;25.85;16.77;;;;;;;15.80;100.00;99394.48;1689674;83;20997;-68
2021/08/23 01:54:43;;;;;;;22.73;15.98;;;;;;;15.70;100.00;99381.84;1702472;83;20904;-68
2021/08/23 01:57:16;;;;;;;22.30;15.50;;;;;;;15.70;100.00;99381.84;1716925;83;21024;-68
2021/08/23 01:59:48;;;;;;;24.95;15.35;;;;;;;15.67;100.00;99383.25;1698782;83;21159;-68
2021/08/23 02:02:18;;;;;;;21.82;14.18;;;;;;;15.61;100.00;99384.72;1695214;83;21432;-68
2021/08/23 02:04:46;;;;;;;21.20;14.58;;;;;;;15.59;100.00;99385.63;1717606;83;21472;-69
2021/08/23 02:07:14;;;;;;;24.50;15.48;;;;;;;15.58;100.00;99386.54;1693051;83;20992;-68
2021/08/23 02:09:43;;;;;;;24.92;15.40;;;;;;;15.57;100.00;99387.42;1707320;83;21013;-68
2021/08/23 02:12:12;;;;;;;24.00;15.28;;;;;;;15.54;100.00;99389.69;1698870;83;21213;-67
2021/08/23 02:14:40;;;;;;;27.30;16.00;;;;;;;15.48;100.00;99387.17;1690492;83;20917;-66
2021/08/23 02:17:10;;;;;;;24.12;15.23;;;;;;;15.46;100.00;99392.98;1713595;83;21622;-66
2021/08/23 02:19:39;;;;;;;23.57;14.80;;;;;;;15.43;100.00;99392.59;1714702;83;20957;-59
2021/08/23 02:22:07;;;;;;;23.90;14.43;;;;;;;15.41;100.00;99389.55;1714940;83;21034;-60
2021/08/23 02:24:36;;;;;;;19.73;12.95;;;;;;;15.39;100.00;99387.38;1714517;83;21217;-65
2021/08/23 02:27:04;;;;;;;23.35;14.65;;;;;;;15.40;100.00;99390.45;1714586;83;21566;-64
2021/08/23 02:29:35;;;;;;;25.80;14.93;;;;;;;15.40;100.00;99383.35;1713876;83;21487;-65
2021/08/23 02:32:03;;;;;;;30.10;14.60;;;;;;;15.41;100.00;99389.09;1714211;83;20945;-66
2021/08/23 02:34:33;;;;;;;28.07;18.10;;;;;;;15.41;100.00;99393.08;1686161;85;21090;-65
2021/08/23 02:37:03;;;;;;;31.65;16.82;;;;;;;15.39;100.00;99396.67;1712754;82;21971;-65
2021/08/23 02:39:32;;;;;;;34.73;17.90;;;;;;;15.36;100.00;99398.95;1714500;82;21171;-65
2021/08/23 02:42:02;;;;;;;26.10;16.15;;;;;;;15.33;100.00;99403.00;1714729;83;21546;-64
2021/08/23 02:44:31;;;;;;;26.02;16.30;;;;;;;15.32;100.00;99401.70;1714963;83;21538;-65
2021/08/23 02:47:00;;;;;;;27.40;18.07;;;;;;;15.32;100.00;99405.23;1714647;83;21252;-64
2021/08/23 02:49:30;;;;;;;27.13;16.23;;;;;;;15.31;100.00;99402.16;1714930;83;22938;-65
2021/08/23 02:51:59;;;;;;;21.82;14.95;;;;;;;15.30;100.00;99411.49;1714330;83;20897;-65
2021/08/23 02:54:27;;;;;;;16.85;13.05;;;;;;;15.27;100.00;99409.77;1714294;83;20969;-65
2021/08/23 02:56:57;;;;;;;17.42;12.95;;;;;;;15.25;100.00;99410.27;1685157;83;21499;-65
2021/08/23 02:59:25;;;;;;;19.60;11.73;;;;;;;15.25;100.00;99412.05;1701956;83;21067;-65
2021/08/23 03:01:55;;;;;;;21.25;13.10;;;;;;;15.25;100.00;99407.61;1670417;85;21516;-66
2021/08/23 03:04:27;;;;;;;21.60;13.90;;;;;;;15.25;100.00;99414.25;1684798;85;21523;-65
2021/08/23 03:06:57;;;;;;;22.30;14.40;;;;;;;15.23;100.00;99409.42;1709735;83;20917;-66
2021/08/23 03:09:25;;;;;;;19.52;13.18;;;;;;;15.21;100.00;99411.69;1684031;83;21535;-66
2021/08/23 03:11:54;;;;;;;15.63;11.38;;;;;;;15.19;100.00;99411.72;1717578;83;21024;-66
2021/08/23 03:14:23;;;;;;;17.40;10.43;;;;;;;15.17;100.00;99413.98;1717512;83;21684;-65
2021/08/23 03:16:52;;;;;;;17.40;11.50;;;;;;;15.18;100.00;99410.42;1717504;83;21078;-65
2021/08/23 03:19:21;;;;;;;17.10;11.05;;;;;;;15.21;100.00;99417.88;1690754;83;21496;-65
2021/08/23 03:21:49;;;;;;;28.17;13.35;;;;;;;15.23;100.00;99411.20;1697564;83;21439;-65
2021/08/23 03:24:18;;;;;;;35.30;14.38;;;;;;;15.23;100.00;99409.42;1717855;83;21008;-65
2021/08/23 03:26:47;;;;;;;33.33;14.47;;;;;;;15.24;100.00;99409.84;1717337;83;21507;-65
2021/08/23 03:29:15;;;;;;;29.92;13.32;;;;;;;15.24;100.00;99421.80;1716770;83;20949;-66
2021/08/23 03:31:44;;;;;;;27.07;13.45;;;;;;;15.26;100.00;99420.44;1717554;83;21567;-65
2021/08/23 03:34:15;;;;;;;37.67;14.65;;;;;;;15.30;100.00;99423.45;1717635;83;21025;-66
2021/08/23 03:36:47;;;;;;;34.20;16.10;;;;;;;15.33;100.00;99423.39;1698768;83;20878;-65
2021/08/23 03:39:20;;;;;;;31.03;14.40;;;;;;;15.34;100.00;99422.48;1716096;83;21891;-66
2021/08/23 03:41:47;;;;;;;27.55;14.20;;;;;;;15.34;100.00;99427.34;1717817;83;21451;-67
2021/08/23 03:44:16;;;;;;;29.82;15.38;;;;;;;15.34;100.00;99428.67;1717614;83;20972;-65
2021/08/23 03:46:44;;;;;;;28.17;15.43;;;;;;;15.36;100.00;99433.50;1717548;83;20929;-66
2021/08/23 03:49:14;;;;;;;96.95;16.73;;;;;;;15.40;100.00;99432.53;1718067;83;20881;-66
2021/08/23 03:51:46;;;;;;;29.67;15.93;;;;;;;15.47;100.00;99431.07;1717223;83;21153;-66
2021/08/23 03:54:15;;;;;;;29.27;17.65;;;;;;;15.47;100.00;99431.07;1717953;83;20895;-66
2021/08/23 03:56:43;;;;;;;31.50;17.62;;;;;;;15.50;100.00;99437.65;1717719;83;21479;-66
2021/08/23 03:59:12;;;;;;;36.77;18.98;;;;;;;15.55;100.00;99441.08;1717460;83;20969;-66
2021/08/23 04:01:43;;;;;;;45.63;19.17;;;;;;;15.65;100.00;99447.56;1691238;83;20912;-66
2021/08/23 04:04:12;;;;;;;76.55;19.75;;;;;;;15.65;100.00;99447.56;1717919;82;21118;-66
2021/08/23 04:06:44;;;;;;;155.50;21.50;;;;;;;15.70;100.00;99452.78;1717174;83;20996;-66
2021/08/23 04:09:13;;;;;;;42.03;17.45;;;;;;;15.72;100.00;99455.83;1717801;83;20933;-66
2021/08/23 04:11:41;;;;;;;62.27;15.85;;;;;;;15.74;100.00;99456.67;1712277;83;21064;-66
2021/08/23 04:14:09;;;;;;;74.05;17.07;;;;;;;15.79;100.00;99451.25;1711959;83;21610;-67
2021/08/23 04:16:38;;;;;;;57.65;18.02;;;;;;;15.82;100.00;99452.50;1709990;83;21439;-66
2021/08/23 04:19:06;;;;;;;39.58;16.65;;;;;;;15.88;100.00;99458.14;1685505;83;20964;-68
2021/08/23 04:21:36;;;;;;;28.85;13.83;;;;;;;15.94;100.00;99457.55;1690844;83;21027;-67
2021/08/23 04:24:05;;;;;;;32.53;13.05;;;;;;;15.94;100.00;99457.55;1697153;83;21016;-66
2021/08/23 04:26:32;;;;;;;24.43;13.13;;;;;;;15.97;100.00;99461.92;1709377;83;21023;-66
2021/08/23 04:29:00;;;;;;;32.30;12.65;;;;;;;15.98;100.00;99463.67;1688000;83;21175;-66
2021/08/23 04:31:31;;;;;;;17.37;12.33;;;;;;;16.00;100.00;99454.74;1697608;83;21506;-66
2021/08/23 04:33:58;;;;;;;14.43;11.28;;;;;;;16.07;100.00;99466.12;1712126;83;20984;-67
2021/08/23 04:36:26;;;;;;;17.37;12.30;;;;;;;16.16;100.00;99462.40;1697556;83;21015;-67
2021/08/23 04:38:54;;;;;;;19.90;12.80;;;;;;;16.22;100.00;99460.47;1711723;83;20995;-66
2021/08/23 04:41:23;;;;;;;16.00;12.45;;;;;;;16.30;100.00;99459.82;1675347;85;21518;-67
2021/08/23 04:43:51;;;;;;;18.57;12.65;;;;;;;16.37;100.00;99459.22;1711635;83;21447;-66
2021/08/23 04:46:19;;;;;;;19.87;14.03;;;;;;;16.50;100.00;99457.99;1697973;83;21025;-66
2021/08/23 04:48:47;;;;;;;22.00;16.80;;;;;;;16.62;100.00;99452.84;1656605;85;21052;-66
2021/08/23 04:51:15;;;;;;;21.07;15.88;;;;;;;16.70;100.00;99458.88;1703545;83;20992;-66
2021/08/23 04:53:42;;;;;;;19.45;13.48;;;;;;;16.80;100.00;99459.52;1711371;83;21121;-65
2021/08/23 04:56:11;;;;;;;16.30;12.47;;;;;;;16.88;100.00;99458.84;1711880;83;20931;-66
2021/08/23 04:58:40;;;;;;;17.90;13.60;;;;;;;16.97;100.00;99455.48;1711934;83;20861;-66
2021/08/23 05:01:07;;;;;;;15.13;11.97;;;;;;;17.06;100.00;99456.17;1711613;83;20964;-67
2021/08/23 05:03:35;;;;;;;15.65;12.95;;;;;;;17.14;100.00;99461.70;1711388;83;20964;-67
2021/08/23 05:06:04;;;;;;;14.68;12.00;;;;;;;17.23;100.00;99463.24;1711970;83;21159;-66
2021/08/23 05:08:32;;;;;;;16.60;13.22;;;;;;;17.31;100.00;99462.56;1645178;85;20924;-66
2021/08/23 05:11:01;;;;;;;17.30;13.05;;;;;;;17.40;100.00;99455.63;1711827;83;21516;-65
2021/08/23 05:13:28;;;;;;;21.48;14.47;;;;;;;17.48;100.00;99461.62;1672558;83;20980;-66
2021/08/23 05:15:57;;;;;;;22.52;15.68;;;;;;;17.55;100.00;99457.88;1711657;83;21020;-66
2021/08/23 05:18:25;;;;;;;19.77;14.68;;;;;;;17.61;100.00;99458.16;1712053;83;21176;-66
2021/08/23 05:20:53;;;;;;;19.40;13.90;;;;;;;17.68;100.00;99455.75;1711921;83;20850;-66
2021/08/23 05:23:21;;;;;;;16.95;12.98;;;;;;;17.78;100.00;99457.69;1710652;83;21089;-66
2021/08/23 05:25:49;;;;;;;17.15;13.68;;;;;;;17.88;100.00;99457.36;1711924;83;21570;-66
2021/08/23 05:28:17;;;;;;;19.50;14.33;;;;;;;17.97;100.00;99455.32;1711508;83;21000;-66
2021/08/23 05:30:45;;;;;;;22.30;12.50;;;;;;;18.05;100.00;99453.31;1711896;82;21167;-66
2021/08/23 05:33:13;;;;;;;15.60;12.23;;;;;;;18.14;100.00;99459.23;1674519;85;20955;-67
2021/08/23 05:35:40;;;;;;;18.87;12.68;;;;;;;18.23;100.00;99453.59;1708254;83;21520;-67
2021/08/23 05:38:08;;;;;;;17.55;13.18;;;;;;;18.34;100.00;99453.25;1681823;85;21036;-66
2021/08/23 05:40:37;;;;;;;17.75;13.83;;;;;;;18.46;100.00;99453.34;1708431;83;21507;-67
2021/08/23 05:43:05;;;;;;;19.55;13.13;;;;;;;18.55;100.00;99452.56;1704423;83;21191;-67
2021/08/23 05:45:34;;;;;;;18.05;12.82;;;;;;;18.68;100.00;99450.84;1685747;83;20988;-66
2021/08/23 05:48:03;;;;;;;16.85;11.70;;;;;;;18.81;100.00;99453.50;1711873;83;21105;-66
2021/08/23 05:50:31;;;;;;;18.30;11.80;;;;;;;18.92;100.00;99447.78;1711563;83;21027;-67
2021/08/23 05:52:59;;;;;;;16.73;13.00;;;;;;;19.01;100.00;99443.47;1711969;83;20922;-67
2021/08/23 05:55:27;;;;;;;17.75;12.63;;;;;;;19.10;100.00;99433.78;1709964;82;21146;-67
2021/08/23 05:57:54;;;;;;;15.48;12.33;;;;;;;19.17;100.00;99436.64;1667243;85;21395;-67
2021/08/23 06:00:22;;;;;;;16.70;12.20;;;;;;;19.24;100.00;99439.50;1641980;85;21113;-67
2021/08/23 06:02:50;;;;;;;15.00;12.45;;;;;;;19.33;100.00;99435.14;1641322;86;21550;-66
2021/08/23 06:05:19;;;;;;;16.42;12.25;;;;;;;19.43;100.00;99435.24;1658323;85;21038;-66
2021/08/23 06:07:48;;;;;;;13.58;12.15;;;;;;;19.56;100.00;99434.34;1658256;85;22047;-65
2021/08/23 06:10:19;;;;;;;16.95;12.23;;;;;;;19.66;100.00;99433.06;1654563;86;20911;-67
2021/08/23 06:12:47;;;;;;;17.15;13.18;;;;;;;19.78;100.00;99435.73;1651264;85;20946;-67
2021/08/23 06:15:16;;;;;;;18.17;11.55;;;;;;;19.85;100.00;99425.65;1641205;86;21038;-67
2021/08/23 06:17:44;;;;;;;20.30;12.45;;;;;;;19.94;100.00;99427.99;1658271;86;21070;-67
2021/08/23 06:20:14;;;;;;;16.42;12.98;;;;;;;20.04;100.00;99425.35;1675100;85;21482;-67
2021/08/23 06:22:46;;;;;;;18.02;13.05;;;;;;;20.12;100.00;99421.43;1711096;83;20984;-68
2021/08/23 06:25:13;;;;;;;17.12;12.78;;;;;;;20.19;100.00;99423.39;1711729;83;21015;-66
2021/08/23 06:27:41;;;;;;;20.08;13.93;;;;;;;20.25;100.00;99422.27;1711636;83;21031;-66
2021/08/23 06:30:11;;;;;;;19.65;12.95;;;;;;;20.32;100.00;99417.93;1712133;83;20957;-67
2021/08/23 06:32:42;;;;;;;22.37;12.10;;;;;;;20.39;100.00;99413.22;1711532;83;21219;-67
2021/08/23 06:35:12;;;;;;;15.88;11.55;;;;;;;20.52;100.00;99422.52;1686827;83;21523;-66
2021/08/23 06:37:41;;;;;;;30.37;12.90;;;;;;;20.65;100.00;99414.83;1711519;83;21415;-67
2021/08/23 06:40:09;;;;;;;17.25;12.23;;;;;;;20.77;100.00;99416.11;1710294;83;20963;-69
2021/08/23 06:42:37;;;;;;;14.85;10.70;;;;;;;20.87;100.00;99418.34;1711889;83;20945;-66
2021/08/23 06:45:07;;;;;;;15.08;10.93;;;;;;;20.95;100.00;99405.47;1712289;83;21779;-67
2021/08/23 06:47:35;;;;;;;14.83;9.35;;;;;;;21.05;100.00;99403.25;1711601;83;20996;-66
2021/08/23 06:50:04;;;;;;;18.73;11.63;;;;;;;21.16;100.00;99404.98;1710044;83;21013;-64
2021/08/23 06:52:32;;;;;;;40.23;11.75;;;;;;;21.25;100.00;99399.23;1711369;83;20961;-65
2021/08/23 06:54:59;;;;;;;19.45;11.38;;;;;;;21.35;100.00;99397.90;1712253;83;20949;-64
2021/08/23 06:57:27;;;;;;;16.27;11.78;;;;;;;21.43;100.00;99398.02;1694491;83;21562;-64
2021/08/23 06:59:55;;;;;;;16.73;13.25;;;;;;;21.49;100.00;99394.57;1696962;83;21036;-64
2021/08/23 07:02:23;;;;;;;17.55;12.45;;;;;;;21.59;100.00;99393.20;1711918;83;20994;-63
2021/08/23 07:04:50;;;;;;;18.12;13.20;;;;;;;21.67;100.00;99393.70;1712277;83;20951;-64
2021/08/23 07:07:18;;;;;;;18.40;11.97;;;;;;;21.75;100.00;99394.68;1711942;83;21013;-63
2021/08/23 07:09:46;;;;;;;25.82;13.53;;;;;;;21.85;100.00;99397.83;1711389;83;21153;-64
2021/08/23 07:12:14;;;;;;;21.33;12.75;;;;;;;21.93;100.00;99389.80;1673926;85;20904;-63
2021/08/23 07:14:41;;;;;;;16.15;12.07;;;;;;;22.03;100.00;99390.69;1710887;83;21102;-63
2021/08/23 07:17:10;;;;;;;19.48;11.95;;;;;;;22.12;100.00;99391.14;1711381;83;37492;-64
2021/08/23 07:19:38;;;;;;;16.90;11.43;;;;;;;22.18;100.00;99393.52;1709985;83;20941;-58
2021/08/23 07:22:06;;;;;;;16.87;11.68;;;;;;;22.26;100.00;99385.98;1711917;83;21086;-62
2021/08/23 07:24:35;;;;;;;11.73;9.73;;;;;;;22.37;100.00;99387.26;1675172;85;20952;-62
2021/08/23 07:27:04;;;;;;;13.28;8.98;;;;;;;22.46;100.00;99382.76;1711225;83;20913;-62
2021/08/23 07:29:32;;;;;;;11.70;7.72;;;;;;;22.55;100.00;99382.28;1711869;83;20993;-62
2021/08/23 07:32:00;;;;;;;41.70;8.70;;;;;;;22.65;100.00;99378.17;1702789;83;21098;-62
2021/08/23 07:34:29;;;;;;;8.58;5.50;;;;;;;22.74;100.00;99371.48;1691512;83;21864;-62
2021/08/23 07:36:56;;;;;;;6.40;4.58;;;;;;;22.83;100.00;99377.28;1696025;83;21002;-63
2021/08/23 07:39:24;;;;;;;7.05;4.53;;;;;;;22.92;100.00;99374.10;1693804;83;21068;-62
2021/08/23 07:41:52;;;;;;;4.55;4.00;;;;;;;23.04;100.00;99375.74;1692492;83;20985;-62
2021/08/23 07:44:19;;;;;;;4.60;3.47;;;;;;;23.15;100.00;99382.28;1655028;85;21038;-62
2021/08/23 07:46:49;;;;;;;11.38;5.33;;;;;;;23.28;100.00;99377.62;1653057;86;21157;-62
2021/08/23 07:49:18;;;;;;;6.70;5.70;;;;;;;23.39;100.00;99370.69;1657559;85;21560;-62
2021/08/23 07:51:46;;;;;;;7.30;5.25;;;;;;;23.51;100.00;99368.67;1702250;83;21073;-62
2021/08/23 07:54:17;;;;;;;16.77;6.20;;;;;;;23.64;100.00;99371.58;1692604;83;21061;-64
2021/08/23 07:56:44;;;;;;;7.30;5.42;;;;;;;23.73;100.00;99371.57;1695231;83;21046;-62
2021/08/23 07:59:12;;;;;;;16.05;5.65;;;;;;;23.82;100.00;99360.27;1695972;83;21210;-61
2021/08/23 08:01:39;;;;;;;12.98;5.50;;;;;;;23.91;100.00;99366.48;1695740;83;21548;-61
2021/08/23 08:04:07;;;;;;;13.45;5.60;;;;;;;23.97;100.00;99365.27;1690239;83;21442;-61
2021/08/23 08:06:35;;;;;;;7.42;4.17;;;;;;;24.05;100.00;99361.17;1700041;83;20998;-62
2021/08/23 08:09:04;;;;;;;7.87;3.98;;;;;;;24.16;100.00;99365.97;1708132;83;20984;-61
2021/08/23 08:11:34;;;;;;;9.85;4.40;;;;;;;24.25;100.00;99359.17;1713589;83;21959;-61
2021/08/23 08:14:02;;;;;;;9.25;3.85;;;;;;;24.35;99.46;99362.61;1702239;83;21114;-61
2021/08/23 08:16:30;;;;;;;10.32;4.50;;;;;;;24.39;96.26;99359.25;1717040;83;21023;-61
2021/08/23 08:18:58;;;;;;;9.45;4.50;;;;;;;24.45;95.89;99358.41;1717228;83;21454;-60
2021/08/23 08:21:25;;;;;;;19.27;5.60;;;;;;;24.56;92.77;99359.11;1716845;83;20931;-63
2021/08/23 08:23:53;;;;;;;7.90;4.80;;;;;;;24.63;90.91;99352.42;1717832;83;21239;-61
2021/08/23 08:26:22;;;;;;;21.50;4.95;;;;;;;24.71;90.32;99356.88;1717723;83;20987;-61
2021/08/23 08:28:50;;;;;;;8.83;4.53;;;;;;;24.81;90.94;99359.88;1717736;83;20860;-62
2021/08/23 08:31:18;;;;;;;12.75;5.25;;;;;;;24.93;90.16;99359.13;1717724;83;20939;-62
2021/08/23 08:33:46;;;;;;;13.65;5.12;;;;;;;25.03;88.56;99364.85;1717888;83;20864;-61
2021/08/23 08:36:14;;;;;;;8.53;4.87;;;;;;;25.10;86.87;99364.41;1717751;83;21060;-61
2021/08/23 08:38:43;;;;;;;13.75;4.75;;;;;;;25.17;83.88;99364.89;1717655;83;20895;-65
2021/08/23 08:41:11;;;;;;;14.60;4.85;;;;;;;25.25;81.96;99355.83;1717800;83;20950;-66
2021/08/23 08:43:39;;;;;;;15.53;4.50;;;;;;;25.38;81.12;99361.32;1717807;83;21473;-67
2021/08/23 08:46:08;;;;;;;9.95;4.22;;;;;;;25.48;81.96;99353.50;1717729;83;21030;-72
2021/08/23 08:48:36;;;;;;;7.25;4.60;;;;;;;25.56;79.43;99349.38;1717844;83;21793;-65
2021/08/23 08:51:04;;;;;;;6.83;4.45;;;;;;;25.67;78.98;99351.41;1717626;83;21009;-65
2021/08/23 08:53:33;;;;;;;7.78;4.30;;;;;;;25.72;76.44;99349.28;1717732;82;20990;-66
2021/08/23 08:56:01;;;;;;;11.90;4.20;;;;;;;25.77;73.13;99345.80;1691374;83;20923;-67
2021/08/23 08:58:29;;;;;;;7.85;4.00;;;;;;;25.86;70.78;99345.19;1689067;85;21449;-66
2021/08/23 09:00:56;;;;;;;9.50;4.00;;;;;;;25.98;68.71;99345.73;1689156;85;21156;-66
2021/08/23 09:03:26;;;;;;;7.10;4.45;;;;;;;26.06;68.84;99346.61;1688827;85;20935;-68
2021/08/23 09:06:05;;;;;;;4.50;3.50;;;;;;;26.15;67.44;99339.72;1689064;85;20955;-66
2021/08/23 09:08:42;;;;;;;6.50;3.77;;;;;;;26.18;67.38;99336.81;1708620;82;21050;-66
2021/08/23 09:11:17;;;;;;;8.53;3.30;;;;;;;26.25;66.97;99337.64;1694438;82;20905;-66
2021/08/23 09:13:59;;;;;;;87.60;6.12;;;;;;;26.35;66.01;99340.63;1712080;83;21135;-65
2021/08/23 09:16:28;;;;;;;9.05;3.70;;;;;;;26.42;64.37;99332.95;1712055;83;20950;-67
2021/08/23 09:18:56;;;;;;;10.20;3.92;;;;;;;26.48;61.93;99334.76;1712144;83;20931;-68
2021/08/23 09:21:35;;;;;;;5.65;3.62;;;;;;;26.52;62.11;99328.69;1712184;83;21506;-67
2021/08/23 09:24:02;;;;;;;10.65;3.60;;;;;;;;;;1712102;83;20990;-68
2021/08/23 09:26:34;;;;;;;7.05;3.62;;;;;;;26.66;62.27;99328.59;1670690;83;21847;-67
2021/08/23 09:29:05;;;;;;;18.75;4.00;;;;;;;26.77;61.46;99329.20;1697645;83;21011;-68
2021/08/23 09:31:39;;;;;;;10.55;3.45;;;;;;;26.91;61.80;99324.55;1705418;83;21501;-68
2021/08/23 09:34:08;;;;;;;4.65;2.58;;;;;;;27.02;57.93;99329.28;1708609;83;21034;-68
2021/08/23 09:36:36;;;;;;;3.95;2.70;;;;;;;27.10;55.38;99320.61;1711894;83;21012;-67
2021/08/23 09:39:18;;;;;;;9.80;2.95;;;;;;;27.25;56.39;99323.57;1675215;85;22045;-67
2021/08/23 09:41:47;;;;;;;6.08;3.35;;;;;;;27.45;56.81;99320.80;1711908;83;21507;-66
2021/08/23 09:44:15;;;;;;;5.80;3.40;;;;;;;27.69;56.57;99319.53;1703151;83;21005;-67
2021/08/23 09:46:44;;;;;;;6.55;3.30;;;;;;;27.79;54.55;99318.73;1693905;83;20961;-69
2021/08/23 09:49:13;;;;;;;5.12;3.30;;;;;;;27.82;51.80;99318.50;1682072;85;20913;-67
2021/08/23 09:51:44;;;;;;;9.58;6.97;;;;;;;27.87;50.74;99311.38;1702468;83;21125;-67
2021/08/23 09:54:19;;;;;;;10.68;5.53;;;;;;;27.95;50.42;99316.27;1685737;83;20992;-65
2021/08/23 09:56:55;;;;;;;8.75;3.98;;;;;;;27.94;48.97;99311.33;1711839;83;21485;-65
2021/08/23 09:59:28;;;;;;;7.05;3.42;;;;;;;27.90;47.51;99312.02;1711985;83;20909;-67
2021/08/23 10:02:00;;;;;;;4.67;2.90;;;;;;;27.90;48.26;99320.64;1710990;83;20983;-67
2021/08/23 10:04:28;;;;;;;6.25;3.17;;;;;;;27.93;46.53;99324.52;1708465;83;21143;-66
2021/08/23 10:06:56;;;;;;;6.05;3.20;;;;;;;27.90;46.13;99322.00;1710317;83;21519;-67
2021/08/23 10:09:27;;;;;;;5.97;3.40;;;;;;;27.94;45.77;99322.67;1683414;84;21510;-68
2021/08/23 10:11:59;;;;;;;6.58;3.08;;;;;;;27.99;45.21;99325.90;1683644;84;20921;-67
2021/08/23 10:14:27;;;;;;;;;;;;;;;28.09;45.66;99322.37;1685847;84;21013;-68
2021/08/23 10:16:54;;;;;;;5.45;3.08;;;;;;;28.08;44.54;99326.56;1683365;84;21556;-67
2021/08/23 10:19:25;;;;;;;5.75;2.90;;;;;;;28.11;44.44;99321.77;1682854;84;21594;-68
2021/08/23 10:21:56;;;;;;;6.22;3.12;;;;;;;28.13;44.12;99321.66;1683248;84;21511;-68
2021/08/23 10:24:26;;;;;;;6.60;3.12;;;;;;;28.15;43.52;99315.63;1683541;84;20984;-68
2021/08/23 10:26:54;;;;;;;7.45;3.33;;;;;;;28.20;44.52;99323.79;1697853;83;20982;-68
2021/08/23 10:29:22;;;;;;;4.62;3.27;;;;;;;28.22;45.50;99323.18;1712073;83;21836;-68
2021/08/23 10:31:50;;;;;;;6.35;3.37;;;;;;;28.29;46.25;99318.67;1710880;83;21416;-68
2021/08/23 10:34:22;;;;;;;4.53;3.52;;;;;;;28.36;46.12;99314.52;1682044;85;21460;-68
2021/08/23 10:36:50;;;;;;;6.95;3.30;;;;;;;28.39;45.50;99311.59;1644769;85;20913;-67
2021/08/23 10:39:26;;;;;;;8.93;3.02;;;;;;;28.39;46.22;99312.95;1681999;85;20881;-68
2021/08/23 10:41:56;;;;;;;10.68;3.52;;;;;;;28.37;45.95;99307.61;1704905;83;21773;-68
2021/08/23 10:44:30;;;;;;;5.78;3.20;;;;;;;28.32;45.82;99310.30;1712290;83;20901;-68
2021/08/23 10:47:14;;;;;;;6.87;3.17;;;;;;;28.25;45.54;99305.84;1712046;83;20913;-68
2021/08/23 10:49:46;;;;;;;7.53;3.52;;;;;;;28.18;45.18;99304.05;1712008;83;20968;-68
2021/08/23 10:52:15;;;;;;;20.10;3.75;;;;;;;28.13;44.92;99291.83;1675144;85;25064;-68
2021/08/23 10:54:51;;;;;;;6.40;3.65;;;;;;;28.16;44.67;99296.52;1712192;82;21148;-73
2021/08/23 10:57:22;;;;;;;7.17;3.02;;;;;;;28.23;45.30;99292.85;1705942;83;21066;-68
2021/08/23 10:59:53;;;;;;;5.28;3.08;;;;;;;28.26;45.82;99294.00;1712264;83;20896;-68
2021/08/23 11:02:34;;;;;;;5.72;3.35;;;;;;;28.36;45.18;99300.95;1711967;83;21004;-68
2021/08/23 11:05:14;;;;;;;9.65;3.77;;;;;;;28.37;45.76;99285.05;1712443;83;21544;-68
2021/08/23 11:07:45;;;;;;;5.85;3.52;;;;;;;28.51;45.91;99285.73;1712040;83;21136;-69
2021/08/23 11:10:24;;;;;;;6.50;3.80;;;;;;;28.67;45.79;99289.96;1711971;83;21589;-68
2021/08/23 11:12:54;;;;;;;6.58;3.65;;;;;;;28.68;44.75;99289.84;1711951;83;20872;-69
2021/08/23 11:15:28;;;;;;;5.15;3.22;;;;;;;28.81;45.69;99283.81;1664476;83;21643;-69
2021/08/23 11:18:09;;;;;;;6.25;3.37;;;;;;;29.04;46.31;99291.55;1663780;86;20945;-68
2021/08/23 11:20:48;;;;;;;4.80;3.35;;;;;;;29.19;43.64;99294.03;1663747;86;21358;-69
2021/08/23 11:23:26;;;;;;;4.45;2.95;;;;;;;29.13;42.23;99294.03;1670170;83;21637;-69
2021/08/23 11:25:56;;;;;;;10.38;3.37;;;;;;;29.11;41.90;99285.14;1692953;83;20901;-69
2021/08/23 11:28:30;;;;;;;6.35;3.50;;;;;;;29.21;41.44;99282.55;1710371;83;21006;-70